createdAt,value
2023-02-19T00:00:25.116Z,34.56
2023-02-19T00:01:31.331Z,34.76
2023-02-19T00:02:35.040Z,34.64
2023-02-19T00:03:39.368Z,34.47
2023-02-19T00:04:43.092Z,34.27
2023-02-19T00:05:46.678Z,34.17
2023-02-19T00:06:50.620Z,34.44
2023-02-19T00:07:55.946Z,34.55
2023-02-19T00:08:59.865Z,34.01
2023-02-19T00:10:03.518Z,34.54
2023-02-19T00:11:09.360Z,34.10
2023-02-19T00:12:13.222Z,34.26
2023-02-19T00:13:16.948Z,34.62
2023-02-19T00:14:22.178Z,34.52
2023-02-19T00:15:25.844Z,34.60
2023-02-19T00:16:31.292Z,34.36
2023-02-19T00:17:34.926Z,33.89
2023-02-19T00:18:38.651Z,34.05
2023-02-19T00:19:42.285Z,33.99
2023-02-19T00:20:45.951Z,33.70
2023-02-19T00:21:51.623Z,34.19
2023-02-19T00:22:56.901Z,34.23
2023-02-19T00:24:01.737Z,34.13
2023-02-19T00:25:05.554Z,33.83
2023-02-19T00:26:18.264Z,34.44
2023-02-19T00:27:22.343Z,34.30
2023-02-19T00:28:25.969Z,33.87
2023-02-19T00:29:29.618Z,34.19
2023-02-19T00:30:33.743Z,33.91
2023-02-19T00:31:37.459Z,34.07
2023-02-19T00:32:41.323Z,34.26
2023-02-19T00:33:45.059Z,34.05
2023-02-19T00:34:48.662Z,34.03
2023-02-19T00:35:52.323Z,33.78
2023-02-19T00:36:55.977Z,33.54
2023-02-19T00:38:01.268Z,33.59
2023-02-19T00:39:05.553Z,33.42
2023-02-19T00:40:10.090Z,33.28
2023-02-19T00:41:15.027Z,33.71
2023-02-19T00:42:18.685Z,33.54
2023-02-19T00:43:22.564Z,33.31
2023-02-19T00:44:26.191Z,33.36
2023-02-19T00:45:29.792Z,33.65
2023-02-19T00:46:35.008Z,33.21
2023-02-19T00:47:38.633Z,33.36
2023-02-19T00:48:42.496Z,33.12
2023-02-19T00:49:52.975Z,33.61
2023-02-19T00:50:56.560Z,32.97
2023-02-19T00:52:00.224Z,33.46
2023-02-19T00:53:05.550Z,32.78
2023-02-19T00:54:09.228Z,32.59
2023-02-19T00:55:12.823Z,32.70
2023-02-19T00:56:16.793Z,32.96
2023-02-19T00:57:20.426Z,32.86
2023-02-19T00:58:24.056Z,33.08
2023-02-19T00:59:27.788Z,32.93
2023-02-19T01:00:31.423Z,32.66
2023-02-19T01:01:35.120Z,32.40
2023-02-19T01:02:38.798Z,33.14
2023-02-19T01:03:42.665Z,33.14
2023-02-19T01:04:46.468Z,33.25
2023-02-19T01:05:50.404Z,32.89
2023-02-19T01:06:54.083Z,33.13
2023-02-19T01:07:57.743Z,32.82
2023-02-19T01:09:03.670Z,33.10
2023-02-19T01:10:07.839Z,32.63
2023-02-19T01:11:12.210Z,32.49
2023-02-19T01:12:16.113Z,32.83
2023-02-19T01:13:19.813Z,32.91
2023-02-19T01:14:23.478Z,32.95
2023-02-19T01:15:27.206Z,32.32
2023-02-19T01:16:30.910Z,32.27
2023-02-19T01:17:36.952Z,32.39
2023-02-19T01:18:40.918Z,32.44
2023-02-19T01:19:44.637Z,32.06
2023-02-19T01:20:48.325Z,32.27
2023-02-19T01:21:51.992Z,32.04
2023-02-19T01:22:56.012Z,31.92
2023-02-19T01:23:59.829Z,32.21
2023-02-19T01:25:08.682Z,31.82
2023-02-19T01:26:15.863Z,32.33
2023-02-19T01:27:19.500Z,32.19
2023-02-19T01:28:23.173Z,32.32
2023-02-19T01:29:26.927Z,32.47
2023-02-19T01:30:30.660Z,32.41
2023-02-19T01:31:34.578Z,32.20
2023-02-19T01:32:38.273Z,32.44
2023-02-19T01:33:44.718Z,32.58
2023-02-19T01:34:48.339Z,32.63
2023-02-19T01:35:51.972Z,31.82
2023-02-19T01:36:55.595Z,32.44
2023-02-19T01:37:59.372Z,31.95
2023-02-19T01:39:03.835Z,31.82
2023-02-19T01:40:10.253Z,32.09
2023-02-19T01:41:16.209Z,32.17
2023-02-19T01:42:19.778Z,32.06
2023-02-19T01:43:23.459Z,31.96
2023-02-19T01:45:02.910Z,32.17
2023-02-19T01:46:06.662Z,32.21
2023-02-19T01:47:10.218Z,32.19
2023-02-19T01:48:18.312Z,31.81
2023-02-19T01:49:26.696Z,31.84
2023-02-19T01:50:33.047Z,31.76
2023-02-19T01:51:40.384Z,32.10
2023-02-19T01:52:44.030Z,32.32
2023-02-19T01:53:50.681Z,32.31
2023-02-19T01:54:55.745Z,32.29
2023-02-19T01:56:01.922Z,32.47
2023-02-19T01:57:13.015Z,31.69
2023-02-19T01:58:17.325Z,31.57
2023-02-19T01:59:21.046Z,31.95
2023-02-19T02:00:24.726Z,32.05
2023-02-19T02:01:28.447Z,31.52
2023-02-19T02:02:32.270Z,31.52
2023-02-19T02:03:38.703Z,31.57
2023-02-19T02:04:42.588Z,31.23
2023-02-19T02:05:51.370Z,31.51
2023-02-19T02:06:57.225Z,31.98
2023-02-19T02:08:03.540Z,31.90
2023-02-19T02:09:07.183Z,31.73
2023-02-19T02:10:11.171Z,32.09
2023-02-19T02:11:16.550Z,31.45
2023-02-19T02:12:20.167Z,31.37
2023-02-19T02:13:24.078Z,31.49
2023-02-19T02:14:31.982Z,31.15
2023-02-19T02:15:45.851Z,31.41
2023-02-19T02:16:58.632Z,32.00
2023-02-19T02:18:08.051Z,31.75
2023-02-19T02:19:30.862Z,31.43
2023-02-19T02:20:45.748Z,31.46
2023-02-19T02:22:13.222Z,31.29
2023-02-19T02:23:24.782Z,31.62
2023-02-19T02:25:19.123Z,30.99
2023-02-19T02:26:46.702Z,31.26
2023-02-19T02:28:03.035Z,31.15
2023-02-19T02:29:29.167Z,31.16
2023-02-19T02:30:43.420Z,30.98
2023-02-19T02:31:52.361Z,31.36
2023-02-19T02:33:02.363Z,31.82
2023-02-19T02:34:13.074Z,31.52
2023-02-19T02:35:17.180Z,31.66
2023-02-19T02:36:24.265Z,31.70
2023-02-19T02:37:33.040Z,31.07
2023-02-19T02:38:41.107Z,31.40
2023-02-19T02:39:46.670Z,30.93
2023-02-19T02:40:50.497Z,30.78
2023-02-19T02:41:59.082Z,30.52
2023-02-19T02:43:02.721Z,30.99
2023-02-19T02:44:06.601Z,30.84
2023-02-19T02:45:26.590Z,31.19
2023-02-19T02:46:37.700Z,31.07
2023-02-19T02:47:45.375Z,31.25
2023-02-19T02:48:51.947Z,31.70
2023-02-19T02:49:57.214Z,30.99
2023-02-19T02:51:04.741Z,31.37
2023-02-19T02:52:08.512Z,31.14
2023-02-19T02:53:17.468Z,31.25
2023-02-19T02:54:27.120Z,31.10
2023-02-19T02:55:36.986Z,30.85
2023-02-19T02:56:42.391Z,31.11
2023-02-19T02:57:46.224Z,30.70
2023-02-19T02:58:52.021Z,30.39
2023-02-19T02:59:55.741Z,31.24
2023-02-19T03:01:02.473Z,30.70
2023-02-19T03:02:11.503Z,30.78
2023-02-19T03:03:18.289Z,31.38
2023-02-19T03:04:28.068Z,31.43
2023-02-19T03:05:31.938Z,30.92
2023-02-19T03:06:37.977Z,31.27
2023-02-19T03:07:47.795Z,30.70
2023-02-19T03:08:57.495Z,30.50
2023-02-19T03:10:03.601Z,30.90
2023-02-19T03:11:10.068Z,30.59
2023-02-19T03:12:19.525Z,30.32
2023-02-19T03:13:29.503Z,30.51
2023-02-19T03:14:38.704Z,30.34
2023-02-19T03:15:47.760Z,30.56
2023-02-19T03:16:55.503Z,31.12
2023-02-19T03:18:04.789Z,30.67
2023-02-19T03:19:11.674Z,31.05
2023-02-19T03:20:18.687Z,31.04
2023-02-19T03:21:24.741Z,30.75
2023-02-19T03:22:31.888Z,30.72
2023-02-19T03:23:38.053Z,30.60
2023-02-19T03:24:46.392Z,30.23
2023-02-19T03:25:50.303Z,30.39
2023-02-19T03:26:54.296Z,30.31
2023-02-19T03:28:01.237Z,30.55
2023-02-19T03:29:06.443Z,30.67
2023-02-19T03:30:15.376Z,30.32
2023-02-19T03:31:23.405Z,30.46
2023-02-19T03:32:31.204Z,30.37
2023-02-19T03:33:37.299Z,30.17
2023-02-19T03:34:46.410Z,30.35
2023-02-19T03:35:54.310Z,30.06
2023-02-19T03:37:04.653Z,30.34
2023-02-19T03:38:13.945Z,30.21
2023-02-19T03:39:21.432Z,30.36
2023-02-19T03:40:30.259Z,30.20
2023-02-19T03:41:40.783Z,30.36
2023-02-19T03:43:00.042Z,29.98
2023-02-19T03:44:11.815Z,30.38
2023-02-19T03:45:26.937Z,29.93
2023-02-19T03:46:42.237Z,30.22
2023-02-19T03:47:51.929Z,30.26
2023-02-19T03:49:02.398Z,30.01
2023-02-19T03:50:14.903Z,30.08
2023-02-19T03:51:31.756Z,30.20
2023-02-19T03:52:42.547Z,29.52
2023-02-19T03:53:54.609Z,29.50
2023-02-19T03:55:05.068Z,29.67
2023-02-19T03:56:12.498Z,29.53
2023-02-19T03:57:21.893Z,29.35
2023-02-19T03:58:30.048Z,29.33
2023-02-19T03:59:40.568Z,29.73
2023-02-19T04:00:50.780Z,29.98
2023-02-19T04:01:59.588Z,29.85
2023-02-19T04:03:09.501Z,29.68
2023-02-19T04:04:21.300Z,29.53
2023-02-19T04:05:29.372Z,29.79
2023-02-19T04:06:34.634Z,29.89
2023-02-19T04:07:44.221Z,30.09
2023-02-19T04:08:51.513Z,29.28
2023-02-19T04:09:56.246Z,29.92
2023-02-19T04:11:01.498Z,29.80
2023-02-19T04:12:05.971Z,29.58
2023-02-19T04:13:16.812Z,29.29
2023-02-19T04:14:24.110Z,29.20
2023-02-19T04:15:31.618Z,28.92
2023-02-19T04:16:38.136Z,29.30
2023-02-19T04:17:48.655Z,28.65
2023-02-19T04:18:55.515Z,28.80
2023-02-19T04:20:04.077Z,28.94
2023-02-19T04:21:09.777Z,28.29
2023-02-19T04:22:14.054Z,28.80
2023-02-19T04:23:21.357Z,28.97
2023-02-19T04:24:28.846Z,29.17
2023-02-19T04:25:34.197Z,28.85
2023-02-19T04:26:38.634Z,28.79
2023-02-19T04:27:45.289Z,28.68
2023-02-19T04:28:48.908Z,28.94
2023-02-19T04:29:52.545Z,27.96
2023-02-19T04:30:56.305Z,28.58
2023-02-19T04:32:00.067Z,28.63
2023-02-19T04:33:03.731Z,28.30
2023-02-19T04:34:07.458Z,27.93
2023-02-19T04:35:12.868Z,28.05
2023-02-19T04:36:16.682Z,27.96
2023-02-19T04:37:20.245Z,27.99
2023-02-19T04:38:23.817Z,27.50
2023-02-19T04:39:27.589Z,27.28
2023-02-19T04:40:31.243Z,26.70
2023-02-19T04:41:35.096Z,27.63
2023-02-19T04:42:38.798Z,26.77
2023-02-19T04:43:42.484Z,27.12
2023-02-19T04:44:46.246Z,27.31
2023-02-19T04:45:49.902Z,27.00
2023-02-19T04:46:53.692Z,26.58
2023-02-19T04:47:58.869Z,26.72
2023-02-19T04:49:02.545Z,27.08
2023-02-19T04:50:06.722Z,26.30
2023-02-19T04:51:12.587Z,27.05
2023-02-19T04:52:16.475Z,26.75
2023-02-19T04:53:20.146Z,26.68
2023-02-19T04:54:23.968Z,27.04
2023-02-19T04:55:27.607Z,26.99
2023-02-19T04:56:31.264Z,26.32
2023-02-19T04:57:36.140Z,26.72
2023-02-19T04:58:41.042Z,25.98
2023-02-19T04:59:44.682Z,26.22
2023-02-19T05:00:51.900Z,26.12
2023-02-19T05:01:55.695Z,25.40
2023-02-19T05:02:59.462Z,26.47
2023-02-19T05:04:03.745Z,26.23
2023-02-19T05:05:07.662Z,25.96
2023-02-19T05:06:14.487Z,26.16
2023-02-19T05:07:18.175Z,26.63
2023-02-19T05:08:22.067Z,26.12
2023-02-19T05:09:25.745Z,25.80
2023-02-19T05:10:29.463Z,26.70
2023-02-19T05:11:33.166Z,26.59
2023-02-19T05:12:36.879Z,26.69
2023-02-19T05:13:41.345Z,26.29
2023-02-19T05:14:45.085Z,26.12
2023-02-19T05:15:57.162Z,25.29
2023-02-19T05:17:00.808Z,26.31
2023-02-19T05:18:04.534Z,25.84
2023-02-19T05:19:08.275Z,25.76
2023-02-19T05:20:12.397Z,25.84
2023-02-19T05:21:17.644Z,25.21
2023-02-19T05:22:21.415Z,25.36
2023-02-19T05:23:25.424Z,25.80
2023-02-19T05:24:29.125Z,25.70
2023-02-19T05:25:32.798Z,25.21
2023-02-19T05:26:36.713Z,25.22
2023-02-19T05:27:40.423Z,24.92
2023-02-19T05:28:44.072Z,24.38
2023-02-19T05:29:47.783Z,25.48
2023-02-19T05:30:53.433Z,25.09
2023-02-19T05:31:57.173Z,25.95
2023-02-19T05:33:00.844Z,25.01
2023-02-19T05:34:04.479Z,25.45
2023-02-19T05:35:08.427Z,25.79
2023-02-19T05:36:13.737Z,25.94
2023-02-19T05:37:19.058Z,25.47
2023-02-19T05:38:23.525Z,25.19
2023-02-19T05:39:27.217Z,25.19
2023-02-19T05:40:30.869Z,25.17
2023-02-19T05:41:35.168Z,24.28
2023-02-19T05:42:38.781Z,25.42
2023-02-19T05:43:43.679Z,25.67
2023-02-19T05:44:47.364Z,25.22
2023-02-19T05:45:51.092Z,24.99
2023-02-19T05:46:54.692Z,25.66
2023-02-19T05:47:58.385Z,24.23
2023-02-19T05:49:02.058Z,25.20
2023-02-19T05:50:06.200Z,25.24
2023-02-19T05:51:12.297Z,25.36
2023-02-19T05:52:16.058Z,24.61
2023-02-19T05:53:21.335Z,25.27
2023-02-19T05:54:24.972Z,24.78
2023-02-19T05:55:28.661Z,25.29
2023-02-19T05:56:33.964Z,24.57
2023-02-19T05:57:43.409Z,24.95
2023-02-19T05:58:47.372Z,24.68
2023-02-19T05:59:50.951Z,24.88
2023-02-19T06:00:54.689Z,24.75
2023-02-19T06:01:58.460Z,24.55
2023-02-19T06:03:02.889Z,24.92
2023-02-19T06:04:07.121Z,25.23
2023-02-19T06:05:11.291Z,24.99
2023-02-19T06:06:15.555Z,23.93
2023-02-19T06:07:19.293Z,25.01
2023-02-19T06:08:24.669Z,24.82
2023-02-19T06:09:28.330Z,24.71
2023-02-19T06:10:32.012Z,24.94
2023-02-19T06:11:36.469Z,24.27
2023-02-19T06:12:40.696Z,24.77
2023-02-19T06:13:44.427Z,24.72
2023-02-19T06:14:48.513Z,24.49
2023-02-19T06:15:52.120Z,24.33
2023-02-19T06:16:55.742Z,24.58
2023-02-19T06:17:59.592Z,25.03
2023-02-19T06:19:04.313Z,24.84
2023-02-19T06:20:08.649Z,24.81
2023-02-19T06:21:13.220Z,24.62
2023-02-19T06:22:17.439Z,24.84
2023-02-19T06:23:21.205Z,24.46
2023-02-19T06:24:26.551Z,24.68
2023-02-19T06:25:30.190Z,23.57
2023-02-19T06:26:33.865Z,24.16
2023-02-19T06:27:38.363Z,23.95
2023-02-19T06:28:43.108Z,23.69
2023-02-19T06:29:46.856Z,23.68
2023-02-19T06:30:51.566Z,24.20
2023-02-19T06:31:55.462Z,23.79
2023-02-19T06:32:59.153Z,23.72
2023-02-19T06:34:05.484Z,23.46
2023-02-19T06:35:09.345Z,24.48
2023-02-19T06:36:14.584Z,23.78
2023-02-19T06:37:18.279Z,24.31
2023-02-19T06:38:22.972Z,24.25
2023-02-19T06:39:28.619Z,22.57
2023-02-19T06:40:32.285Z,23.47
2023-02-19T06:41:35.997Z,23.98
2023-02-19T06:42:39.644Z,24.21
2023-02-19T06:43:43.612Z,24.56
2023-02-19T06:44:47.314Z,24.00
2023-02-19T06:45:51.010Z,23.47
2023-02-19T06:46:56.682Z,24.04
2023-02-19T06:48:00.332Z,24.40
2023-02-19T06:49:05.974Z,24.19
2023-02-19T06:50:10.009Z,24.29
2023-02-19T06:51:15.327Z,24.03
2023-02-19T06:52:18.901Z,23.77
2023-02-19T06:53:22.650Z,23.54
2023-02-19T06:54:27.942Z,24.27
2023-02-19T06:55:31.787Z,23.63
2023-02-19T06:56:36.906Z,23.88
2023-02-19T06:57:40.559Z,24.62
2023-02-19T06:58:44.204Z,23.78
2023-02-19T06:59:47.886Z,24.36
2023-02-19T07:00:51.619Z,24.37
2023-02-19T07:01:55.264Z,23.48
2023-02-19T07:02:58.926Z,24.77
2023-02-19T07:04:03.431Z,24.76
2023-02-19T07:05:07.517Z,24.36
2023-02-19T07:06:11.289Z,24.26
2023-02-19T07:07:14.881Z,24.22
2023-02-19T07:08:18.595Z,23.92
2023-02-19T07:09:22.247Z,23.32
2023-02-19T07:10:27.538Z,23.92
2023-02-19T07:11:32.449Z,24.17
2023-02-19T07:12:36.135Z,24.73
2023-02-19T07:13:39.948Z,24.08
2023-02-19T07:14:43.632Z,24.03
2023-02-19T07:15:47.281Z,24.43
2023-02-19T07:16:51.191Z,24.28
2023-02-19T07:17:54.761Z,24.34
2023-02-19T07:18:59.096Z,23.71
2023-02-19T07:20:02.795Z,24.26
2023-02-19T07:21:07.487Z,24.06
2023-02-19T07:22:11.202Z,23.50
2023-02-19T07:23:14.819Z,24.21
2023-02-19T07:24:18.706Z,24.26
2023-02-19T07:25:22.317Z,23.39
2023-02-19T07:26:27.629Z,23.54
2023-02-19T07:27:31.323Z,23.66
2023-02-19T07:28:34.919Z,23.82
2023-02-19T07:29:38.549Z,24.54
2023-02-19T07:30:42.205Z,23.98
2023-02-19T07:31:46.040Z,23.66
2023-02-19T07:32:49.698Z,24.21
2023-02-19T07:33:53.548Z,24.44
2023-02-19T07:34:57.155Z,24.66
2023-02-19T07:36:00.786Z,23.80
2023-02-19T07:37:05.274Z,24.38
2023-02-19T07:38:08.890Z,23.36
2023-02-19T07:39:14.577Z,22.93
2023-02-19T07:40:18.415Z,24.19
2023-02-19T07:41:22.004Z,23.81
2023-02-19T07:42:27.517Z,23.99
2023-02-19T07:43:33.787Z,23.58
2023-02-19T07:44:37.466Z,22.58
2023-02-19T07:45:41.125Z,23.43
2023-02-19T07:46:44.782Z,23.87
2023-02-19T07:47:48.556Z,23.79
2023-02-19T07:48:52.247Z,24.15
2023-02-19T07:49:55.874Z,23.54
2023-02-19T07:51:00.908Z,23.42
2023-02-19T07:52:04.676Z,23.86
2023-02-19T07:53:08.871Z,23.61
2023-02-19T07:54:12.503Z,23.57
2023-02-19T07:55:16.275Z,22.56
2023-02-19T07:56:20.725Z,23.52
2023-02-19T07:57:24.361Z,23.53
2023-02-19T07:58:29.927Z,23.57
2023-02-19T07:59:33.519Z,24.10
2023-02-19T08:00:37.194Z,23.16
2023-02-19T08:01:40.855Z,23.82
2023-02-19T08:02:44.500Z,23.53
2023-02-19T08:03:50.411Z,23.21
2023-02-19T08:04:54.214Z,23.27
2023-02-19T08:05:59.217Z,23.09
2023-02-19T08:07:02.841Z,23.32
2023-02-19T08:08:08.034Z,22.14
2023-02-19T08:09:14.284Z,23.55
2023-02-19T08:10:18.078Z,22.76
2023-02-19T08:11:21.693Z,22.84
2023-02-19T08:12:42.454Z,23.05
2023-02-19T08:13:49.563Z,23.60
2023-02-19T08:14:53.136Z,22.94
2023-02-19T08:16:36.759Z,22.55
2023-02-19T08:17:46.006Z,22.49
2023-02-19T08:19:00.138Z,22.92
2023-02-19T08:20:03.751Z,23.02
2023-02-19T08:21:10.620Z,22.53
2023-02-19T08:22:14.387Z,23.59
2023-02-19T08:23:18.801Z,22.35
2023-02-19T08:24:22.471Z,23.66
2023-02-19T08:25:26.182Z,23.12
2023-02-19T08:26:29.943Z,23.87
2023-02-19T08:27:33.564Z,22.31
2023-02-19T08:28:37.214Z,23.01
2023-02-19T08:29:42.634Z,23.15
2023-02-19T08:30:47.957Z,22.95
2023-02-19T08:31:51.908Z,23.58
2023-02-19T08:32:56.020Z,23.70
2023-02-19T08:33:59.693Z,23.19
2023-02-19T08:35:03.322Z,22.89
2023-02-19T08:36:08.650Z,22.92
2023-02-19T08:37:12.371Z,23.47
2023-02-19T08:38:16.261Z,22.72
2023-02-19T08:39:21.049Z,22.96
2023-02-19T08:40:25.284Z,23.23
2023-02-19T08:41:28.942Z,23.27
2023-02-19T08:42:32.632Z,22.35
2023-02-19T08:43:36.647Z,22.66
2023-02-19T08:44:41.922Z,22.11
2023-02-19T08:45:47.087Z,22.50
2023-02-19T08:46:50.766Z,22.41
2023-02-19T08:47:54.435Z,22.26
2023-02-19T08:48:58.063Z,22.02
2023-02-19T08:50:01.795Z,21.88
2023-02-19T08:51:08.462Z,23.01
2023-02-19T08:52:12.260Z,22.30
2023-02-19T08:53:15.904Z,22.40
2023-02-19T08:54:19.663Z,22.64
2023-02-19T08:55:23.373Z,22.40
2023-02-19T08:56:27.175Z,22.67
2023-02-19T08:57:30.840Z,22.76
2023-02-19T08:58:34.551Z,22.64
2023-02-19T08:59:38.236Z,22.49
2023-02-19T09:00:43.450Z,22.16
2023-02-19T09:01:47.073Z,23.02
2023-02-19T09:02:51.384Z,22.39
2023-02-19T09:03:55.106Z,22.87
2023-02-19T09:04:58.825Z,21.83
2023-02-19T09:06:02.430Z,22.24
2023-02-19T09:07:06.184Z,22.52
2023-02-19T09:08:10.236Z,22.05
2023-02-19T09:09:13.959Z,21.94
2023-02-19T09:10:17.701Z,21.83
2023-02-19T09:11:21.490Z,22.72
2023-02-19T09:12:25.558Z,22.07
2023-02-19T09:13:29.266Z,22.34
2023-02-19T09:14:33.386Z,22.08
2023-02-19T09:15:38.795Z,22.08
2023-02-19T09:16:44.084Z,22.57
2023-02-19T09:17:52.766Z,22.17
2023-02-19T09:18:56.381Z,22.54
2023-02-19T09:19:59.969Z,22.92
2023-02-19T09:21:05.206Z,22.67
2023-02-19T09:22:08.934Z,23.04
2023-02-19T09:23:12.708Z,23.31
2023-02-19T09:24:16.320Z,23.17
2023-02-19T09:25:19.991Z,23.33
2023-02-19T09:26:23.692Z,23.53
2023-02-19T09:27:27.324Z,23.80
2023-02-19T09:28:31.015Z,23.53
2023-02-19T09:29:34.620Z,23.64
2023-02-19T09:30:38.306Z,24.14
2023-02-19T09:31:43.701Z,26.09
2023-02-19T09:32:47.460Z,25.13
2023-02-19T09:33:51.109Z,25.22
2023-02-19T09:34:54.740Z,25.46
2023-02-19T09:36:00.465Z,26.87
2023-02-19T09:37:04.069Z,25.85
2023-02-19T09:38:07.650Z,25.73
2023-02-19T09:39:11.535Z,26.20
2023-02-19T09:40:15.562Z,26.19
2023-02-19T09:41:27.090Z,26.89
2023-02-19T09:42:33.291Z,27.04
2023-02-19T09:43:38.192Z,27.27
2023-02-19T09:44:44.548Z,27.60
2023-02-19T09:45:49.104Z,26.98
2023-02-19T09:46:55.745Z,27.47
2023-02-19T09:47:59.821Z,27.22
2023-02-19T09:49:08.521Z,27.45
2023-02-19T09:50:17.462Z,27.36
2023-02-19T09:51:21.415Z,26.85
2023-02-19T09:52:32.201Z,27.34
2023-02-19T09:53:44.918Z,27.47
2023-02-19T09:54:49.107Z,27.00
2023-02-19T09:55:54.249Z,26.80
2023-02-19T09:56:58.571Z,26.91
2023-02-19T09:58:09.316Z,27.46
2023-02-19T09:59:20.903Z,27.93
2023-02-19T10:00:27.373Z,27.23
2023-02-19T10:01:38.309Z,27.19
2023-02-19T10:02:43.616Z,27.53
2023-02-19T10:03:50.132Z,27.25
2023-02-19T10:04:54.483Z,27.18
2023-02-19T10:05:59.811Z,27.83
2023-02-19T10:07:03.690Z,27.82
2023-02-19T10:08:13.440Z,27.87
2023-02-19T10:09:22.986Z,27.91
2023-02-19T10:10:31.003Z,27.98
2023-02-19T10:11:34.788Z,28.09
2023-02-19T10:12:38.414Z,27.86
2023-02-19T10:13:46.724Z,28.37
2023-02-19T10:14:53.730Z,27.70
2023-02-19T10:15:59.497Z,27.88
2023-02-19T10:17:06.196Z,28.15
2023-02-19T10:18:11.656Z,28.07
2023-02-19T10:19:16.155Z,28.04
2023-02-19T10:20:22.244Z,27.67
2023-02-19T10:21:27.919Z,27.89
2023-02-19T10:22:33.330Z,27.91
2023-02-19T10:23:37.122Z,28.06
2023-02-19T10:24:44.400Z,28.03
2023-02-19T10:26:00.149Z,28.89
2023-02-19T10:27:04.082Z,28.65
2023-02-19T10:28:13.732Z,28.26
2023-02-19T10:29:17.710Z,28.93
2023-02-19T10:30:24.799Z,28.54
2023-02-19T10:31:32.351Z,28.59
2023-02-19T10:32:36.279Z,28.81
2023-02-19T10:33:50.781Z,28.23
2023-02-19T10:35:11.471Z,29.34
2023-02-19T10:36:26.372Z,29.20
2023-02-19T10:37:30.613Z,28.39
2023-02-19T10:38:36.184Z,29.28
2023-02-19T10:39:45.857Z,30.07
2023-02-19T10:40:51.751Z,29.43
2023-02-19T10:41:55.700Z,28.96
2023-02-19T10:43:02.356Z,29.40
2023-02-19T10:44:11.525Z,30.41
2023-02-19T10:45:22.646Z,30.08
2023-02-19T10:46:28.880Z,30.19
2023-02-19T10:47:33.496Z,30.22
2023-02-19T10:48:39.396Z,30.58
2023-02-19T10:49:46.213Z,30.07
2023-02-19T10:50:54.474Z,30.64
2023-02-19T10:52:04.663Z,30.53
2023-02-19T10:53:22.226Z,30.26
2023-02-19T10:54:32.078Z,30.35
2023-02-19T10:55:38.056Z,30.43
2023-02-19T10:56:42.208Z,30.34
2023-02-19T10:57:46.111Z,30.42
2023-02-19T10:58:49.945Z,30.10
2023-02-19T10:59:55.242Z,30.34
2023-02-19T11:01:14.039Z,30.50
2023-02-19T11:02:18.966Z,30.60
2023-02-19T11:03:23.725Z,30.62
2023-02-19T11:04:41.445Z,30.55
2023-02-19T11:06:03.359Z,30.54
2023-02-19T11:07:14.907Z,30.30
2023-02-19T11:08:23.776Z,30.32
2023-02-19T11:09:34.050Z,30.61
2023-02-19T11:10:41.449Z,30.41
2023-02-19T11:11:45.284Z,30.34
2023-02-19T11:12:51.015Z,29.95
2023-02-19T11:13:57.716Z,30.22
2023-02-19T11:15:14.254Z,29.79
2023-02-19T11:16:18.379Z,30.23
2023-02-19T11:17:26.026Z,29.75
2023-02-19T11:18:31.936Z,30.33
2023-02-19T11:19:39.937Z,30.20
2023-02-19T11:20:51.005Z,30.59
2023-02-19T11:21:57.192Z,30.56
2023-02-19T11:23:03.085Z,30.72
2023-02-19T11:24:07.405Z,30.47
2023-02-19T11:25:23.680Z,30.80
2023-02-19T11:26:32.445Z,31.00
2023-02-19T11:27:36.305Z,30.86
2023-02-19T11:28:41.265Z,30.80
2023-02-19T11:29:45.043Z,31.05
2023-02-19T11:30:49.318Z,30.41
2023-02-19T11:31:53.376Z,30.91
2023-02-19T11:32:57.358Z,30.99
2023-02-19T11:34:02.567Z,30.95
2023-02-19T11:35:17.924Z,31.21
2023-02-19T11:36:33.446Z,30.97
2023-02-19T11:37:53.883Z,31.41
2023-02-19T11:38:59.882Z,31.32
2023-02-19T11:40:03.794Z,30.83
2023-02-19T11:41:15.082Z,31.55
2023-02-19T11:42:41.894Z,30.96
2023-02-19T11:44:06.854Z,31.78
2023-02-19T11:45:23.403Z,32.31
2023-02-19T11:46:34.849Z,32.26
2023-02-19T11:47:59.749Z,32.26
2023-02-19T11:49:21.843Z,31.87
2023-02-19T11:50:33.838Z,31.73
2023-02-19T11:52:05.144Z,32.20
2023-02-19T11:53:18.080Z,31.57
2023-02-19T11:54:44.728Z,32.00
2023-02-19T11:56:00.026Z,32.24
2023-02-19T11:57:12.493Z,32.18
2023-02-19T11:58:45.275Z,32.45
2023-02-19T11:59:56.587Z,32.22
2023-02-19T12:01:07.797Z,32.60
2023-02-19T12:02:41.910Z,32.86
2023-02-19T12:04:09.300Z,32.75
2023-02-19T12:05:40.475Z,32.27
2023-02-19T12:06:54.991Z,32.23
2023-02-19T12:08:18.308Z,32.62
2023-02-19T12:09:38.633Z,32.60
2023-02-19T12:11:00.114Z,32.39
2023-02-19T12:12:21.351Z,32.47
2023-02-19T12:13:33.036Z,32.55
2023-02-19T12:14:52.317Z,32.59
2023-02-19T12:16:07.481Z,32.62
2023-02-19T12:17:20.408Z,32.37
2023-02-19T12:18:43.826Z,32.52
2023-02-19T12:20:02.724Z,32.43
2023-02-19T12:21:19.465Z,32.62
2023-02-19T12:22:33.540Z,32.49
2023-02-19T12:24:06.610Z,32.42
2023-02-19T12:25:26.455Z,32.30
2023-02-19T12:26:32.427Z,32.37
2023-02-19T12:27:50.267Z,32.81
2023-02-19T12:29:12.024Z,32.48
2023-02-19T12:30:43.418Z,32.74
2023-02-19T12:32:07.476Z,33.02
2023-02-19T12:33:51.882Z,32.91
2023-02-19T12:35:39.806Z,32.78
2023-02-19T12:36:56.057Z,32.46
2023-02-19T12:38:11.283Z,32.35
2023-02-19T12:39:25.284Z,32.70
2023-02-19T12:40:45.033Z,32.66
2023-02-19T12:41:58.788Z,32.64
2023-02-19T12:43:13.179Z,32.67
2023-02-19T12:44:23.979Z,32.46
2023-02-19T12:45:34.364Z,32.45
2023-02-19T12:46:42.117Z,32.12
2023-02-19T12:48:00.493Z,31.28
2023-02-19T12:49:12.140Z,31.84
2023-02-19T12:50:21.156Z,31.51
2023-02-19T12:51:28.823Z,31.41
2023-02-19T12:52:37.530Z,31.34
2023-02-19T12:53:49.016Z,31.32
2023-02-19T12:54:57.339Z,31.19
2023-02-19T12:56:05.763Z,30.97
2023-02-19T12:57:14.512Z,31.51
2023-02-19T12:58:30.722Z,31.44
2023-02-19T12:59:49.260Z,31.49
2023-02-19T13:00:57.830Z,31.28
2023-02-19T13:02:13.550Z,31.84
2023-02-19T13:03:23.667Z,32.16
2023-02-19T13:04:35.406Z,31.67
2023-02-19T13:05:46.279Z,31.72
2023-02-19T13:06:55.228Z,31.56
2023-02-19T13:08:09.362Z,31.45
2023-02-19T13:09:18.036Z,31.59
2023-02-19T13:10:31.907Z,31.74
2023-02-19T13:11:41.095Z,31.73
2023-02-19T13:12:46.618Z,31.48
2023-02-19T13:13:55.418Z,31.30
2023-02-19T13:15:04.279Z,31.23
2023-02-19T13:16:10.496Z,31.47
2023-02-19T13:17:25.228Z,31.54
2023-02-19T13:18:35.481Z,31.83
2023-02-19T13:19:43.077Z,31.87
2023-02-19T13:20:49.250Z,31.90
2023-02-19T13:22:04.328Z,31.90
2023-02-19T13:23:14.373Z,31.93
2023-02-19T13:24:26.990Z,32.08
2023-02-19T13:25:45.215Z,31.79
2023-02-19T13:27:07.216Z,31.75
2023-02-19T13:28:22.552Z,31.80
2023-02-19T13:29:47.606Z,32.19
2023-02-19T13:31:12.959Z,31.99
2023-02-19T13:32:34.067Z,31.97
2023-02-19T13:33:49.371Z,31.89
2023-02-19T13:35:04.666Z,32.30
2023-02-19T13:36:14.436Z,31.97
2023-02-19T13:37:19.085Z,31.94
2023-02-19T13:38:23.576Z,32.11
2023-02-19T13:39:29.235Z,31.93
2023-02-19T13:40:38.201Z,31.93
2023-02-19T13:41:43.420Z,32.03
2023-02-19T13:42:54.921Z,32.22
2023-02-19T13:44:02.788Z,32.02
2023-02-19T13:45:07.906Z,31.66
2023-02-19T13:46:15.149Z,31.55
2023-02-19T13:47:52.955Z,31.54
2023-02-19T13:49:46.158Z,31.41
2023-02-19T13:50:50.092Z,31.79
2023-02-19T13:51:54.803Z,31.51
2023-02-19T13:52:58.918Z,31.83
2023-02-19T13:54:16.035Z,31.65
2023-02-19T13:55:50.148Z,31.45
2023-02-19T13:57:25.934Z,31.76
2023-02-19T13:58:53.811Z,31.53
2023-02-19T13:59:58.571Z,31.70
2023-02-19T14:01:03.774Z,31.49
2023-02-19T14:02:13.625Z,31.52
2023-02-19T14:03:31.387Z,31.44
2023-02-19T14:04:45.253Z,31.26
2023-02-19T14:06:03.607Z,31.14
2023-02-19T14:07:36.391Z,31.19
2023-02-19T14:08:52.141Z,31.32
2023-02-19T14:09:57.694Z,31.14
2023-02-19T14:11:03.310Z,31.33
2023-02-19T14:12:19.332Z,31.32
2023-02-19T14:13:57.474Z,30.85
2023-02-19T14:15:41.133Z,31.28
2023-02-19T14:16:57.894Z,31.41
2023-02-19T14:18:04.464Z,31.49
2023-02-19T14:19:15.666Z,31.01
2023-02-19T14:20:44.190Z,30.45
2023-02-19T14:21:48.055Z,30.57
2023-02-19T14:23:23.583Z,30.06
2023-02-19T14:24:29.991Z,30.56
2023-02-19T14:25:41.593Z,30.33
2023-02-19T14:26:47.310Z,30.24
2023-02-19T14:27:52.986Z,30.25
2023-02-19T14:28:59.018Z,30.37
2023-02-19T14:30:03.900Z,30.20
2023-02-19T14:31:32.002Z,29.96
2023-02-19T14:32:36.143Z,30.11